Time;durP1;ratioP1;P1;durP2;ratioP2;P2;SDS_P1;SDS_P2;PMS_P1;PMS_P2;Temp;Humidity;BMP_temperature;BMP_pressure;BME280_temperature;BME280_humidity;BME280_pressure;Samples;Min_cycle;Max_cycle;Signal;HPM_P1;HPM_P2
2023/01/10 00:04:46;;;;;;;1999.90;999.90;;;6.30;99.90;;;;;;6657747;88;20196;-76
2023/01/10 00:14:47;;;;;;;1999.90;999.90;;;6.40;99.90;;;;;;6661468;88;20620;-76
2023/01/10 00:25:09;;;;;;;1999.90;999.90;;;6.40;99.90;;;;;;6655572;88;20238;-75
2023/01/10 00:35:11;;;;;;;1999.90;999.90;;;6.40;99.90;;;;;;6663276;78;20213;-76
2023/01/10 00:45:11;;;;;;;1999.90;999.90;;;6.50;99.90;;;;;;6645788;89;20647;-76
2023/01/10 00:55:11;;;;;;;1999.90;999.90;;;6.50;99.90;;;;;;6636300;89;20230;-75
2023/01/10 01:05:12;;;;;;;1999.90;999.90;;;6.50;99.90;;;;;;6641840;89;20307;-74
2023/01/10 01:15:13;;;;;;;1999.90;999.90;;;6.50;99.90;;;;;;6638688;89;20200;-75
2023/01/10 01:25:13;;;;;;;1999.90;999.90;;;6.50;99.90;;;;;;6647726;89;20706;-77
2023/01/10 01:35:15;;;;;;;1999.90;999.90;;;6.60;99.90;;;;;;6651242;88;20742;-74
2023/01/10 01:45:21;;;;;;;1999.90;999.90;;;6.70;99.90;;;;;;6640964;88;20198;-76
2023/01/10 01:55:25;;;;;;;1999.90;999.90;;;6.70;99.90;;;;;;6631630;89;20239;-75
2023/01/10 02:05:25;;;;;;;1999.90;999.90;;;6.80;99.90;;;;;;6629553;88;20223;-74
2023/01/10 02:15:26;;;;;;;1999.90;999.90;;;6.70;99.90;;;;;;6632474;89;20294;-74
2023/01/10 02:25:45;;;;;;;1999.90;999.90;;;6.70;99.90;;;;;;6631858;89;20196;-75
2023/01/10 02:36:19;;;;;;;1999.90;999.90;;;6.60;99.90;;;;;;6635601;89;20205;-74
2023/01/10 02:46:26;;;;;;;1999.90;999.90;;;6.70;99.90;;;;;;6612399;89;20203;-74
2023/01/10 02:56:38;;;;;;;1999.90;999.90;;;6.60;99.90;;;;;;6635783;89;20305;-74
2023/01/10 03:06:40;;;;;;;1999.90;999.90;;;6.60;99.90;;;;;;6628515;89;20211;-74
2023/01/10 03:16:44;;;;;;;1999.90;999.90;;;6.50;99.90;;;;;;6627023;89;20188;-74
2023/01/10 03:26:57;;;;;;;1999.90;999.90;;;6.50;99.90;;;;;;6627442;89;20262;-74
2023/01/10 03:37:08;;;;;;;1999.90;999.90;;;6.40;99.90;;;;;;6610679;89;20181;-74
2023/01/10 03:47:15;;;;;;;1999.90;999.90;;;6.40;99.90;;;;;;6662671;88;20296;-76
2023/01/10 03:57:17;;;;;;;1999.90;999.90;;;6.30;99.90;;;;;;6713953;88;20755;-76
2023/01/10 04:07:18;;;;;;;1999.90;999.90;;;6.20;99.90;;;;;;6632754;88;20210;-74
2023/01/10 04:17:18;;;;;;;1999.90;999.90;;;6.10;99.90;;;;;;6626279;88;20644;-74
2023/01/10 04:27:19;;;;;;;1999.90;999.90;;;6.20;99.90;;;;;;6639935;88;20256;-74
2023/01/10 04:37:20;;;;;;;1999.90;999.90;;;6.00;99.90;;;;;;6636895;88;20189;-74
2023/01/10 04:47:20;;;;;;;1999.90;999.90;;;6.00;99.90;;;;;;6626508;89;20196;-75
2023/01/10 04:57:21;;;;;;;1999.90;999.90;;;5.70;99.90;;;;;;6627185;89;20233;-75
2023/01/10 05:07:21;;;;;;;1999.90;999.90;;;5.60;99.90;;;;;;6620373;89;20720;-74
2023/01/10 05:17:22;;;;;;;1999.90;999.90;;;5.50;99.90;;;;;;6612315;89;20198;-74
2023/01/10 05:27:22;;;;;;;1999.90;999.90;;;5.50;99.90;;;;;;6607749;89;20204;-74
2023/01/10 05:37:23;;;;;;;1999.90;999.90;;;5.50;99.90;;;;;;6638104;89;20254;-74
2023/01/10 05:47:24;;;;;;;1999.90;999.90;;;5.50;99.90;;;;;;6628004;88;20206;-74
2023/01/10 05:57:24;;;;;;;1999.90;999.90;;;5.50;99.90;;;;;;6628110;89;20247;-74
2023/01/10 06:07:25;;;;;;;1999.90;999.90;;;5.80;99.90;;;;;;6626904;89;20663;-75
2023/01/10 06:17:25;;;;;;;1999.90;999.90;;;5.80;99.90;;;;;;6627864;89;20313;-75
2023/01/10 06:27:26;;;;;;;1999.90;999.90;;;5.70;99.90;;;;;;6649180;77;20270;-74
2023/01/10 06:37:26;;;;;;;1999.90;999.90;;;5.60;99.90;;;;;;6631991;88;20663;-76
2023/01/10 06:47:27;;;;;;;1999.90;999.90;;;5.60;99.90;;;;;;6630600;88;20228;-74
2023/01/10 06:57:27;;;;;;;1999.90;999.90;;;5.40;99.90;;;;;;6630269;88;20229;-75
2023/01/10 07:07:28;;;;;;;1999.90;999.90;;;5.50;99.90;;;;;;6633121;89;20267;-79
2023/01/10 07:17:29;;;;;;;1999.90;999.90;;;5.50;99.90;;;;;;6625845;89;20949;-74
2023/01/10 07:27:31;;;;;;;1999.90;999.90;;;5.50;99.90;;;;;;6631858;88;20224;-74
2023/01/10 07:37:31;;;;;;;1999.90;999.90;;;5.50;99.90;;;;;;6632004;89;20203;-75
2023/01/10 07:47:32;;;;;;;1999.90;999.90;;;5.30;99.90;;;;;;6630798;89;20620;-73
2023/01/10 07:57:32;;;;;;;1999.90;999.90;;;5.10;99.90;;;;;;6648883;88;20302;-74
2023/01/10 08:07:33;;;;;;;1999.90;999.90;;;5.00;99.90;;;;;;6627836;89;20333;-74
2023/01/10 08:17:34;;;;;;;1999.90;999.90;;;4.90;99.90;;;;;;6629327;89;20181;-74
2023/01/10 08:27:34;;;;;;;1999.90;999.90;;;4.90;99.90;;;;;;6631902;88;20313;-74
2023/01/10 08:37:35;;;;;;;1999.90;999.90;;;5.00;99.90;;;;;;6630718;89;20296;-73
2023/01/10 08:47:36;;;;;;;1999.90;999.90;;;5.10;99.90;;;;;;6634790;88;20190;-74
2023/01/10 08:57:36;;;;;;;1999.90;999.90;;;5.30;99.90;;;;;;6630421;89;20640;-74
2023/01/10 09:07:37;;;;;;;1999.90;999.90;;;5.50;99.90;;;;;;6637373;89;20211;-74
2023/01/10 09:17:37;;;;;;;1999.90;999.90;;;5.80;99.90;;;;;;6629475;89;20241;-74
2023/01/10 09:27:38;;;;;;;1999.90;999.90;;;6.60;99.90;;;;;;6631931;89;20248;-73
2023/01/10 09:37:38;;;;;;;1999.90;999.90;;;7.10;99.90;;;;;;6631826;89;20315;-74
2023/01/10 09:47:58;;;;;;;1999.90;999.90;;;7.60;99.90;;;;;;6642986;89;20658;-74
2023/01/10 09:58:05;;;;;;;1999.90;999.90;;;8.00;99.90;;;;;;6637213;88;20201;-74
2023/01/10 10:08:15;;;;;;;1999.90;999.90;;;8.70;99.90;;;;;;6634781;89;20676;-74
2023/01/10 10:18:39;;;;;;;1999.90;999.90;;;9.10;99.90;;;;;;6633097;88;20203;-74
2023/01/10 10:29:17;;;;;;;1999.90;999.90;;;9.30;99.90;;;;;;6634057;89;20198;-74
2023/01/10 10:39:22;;;;;;;1999.90;999.90;;;9.80;99.90;;;;;;6636209;88;20208;-74
2023/01/10 10:49:45;;;;;;;1999.90;999.90;;;9.90;99.90;;;;;;6637915;89;20210;-76
2023/01/10 10:59:47;;;;;;;1999.90;999.90;;;9.60;99.90;;;;;;6628698;88;20210;-74
2023/01/10 11:20:14;;;;;;;1999.90;999.90;;;9.50;99.90;;;;;;6635943;89;20196;-74
2023/01/10 11:30:25;;;;;;;1999.90;999.90;;;9.50;99.90;;;;;;6621131;88;20690;-74
2023/01/10 11:40:28;;;;;;;1999.90;999.90;;;9.50;99.90;;;;;;6633770;89;20188;-75
2023/01/10 11:50:32;;;;;;;1999.90;999.90;;;9.00;99.90;;;;;;6633155;89;20196;-74
2023/01/10 12:00:39;;;;;;;1999.90;999.90;;;8.70;99.90;;;;;;6636932;89;20629;-74
2023/01/10 12:10:40;;;;;;;1999.90;999.90;;;8.70;99.90;;;;;;6635585;89;20788;-74
2023/01/10 12:20:48;;;;;;;1999.90;999.90;;;8.60;99.90;;;;;;6629141;89;20217;-74
2023/01/10 12:30:50;;;;;;;1999.90;999.90;;;8.70;99.90;;;;;;6641101;77;20671;-76
2023/01/10 12:40:59;;;;;;;1999.90;999.90;;;8.60;99.90;;;;;;6622247;88;20199;-74
2023/01/10 12:51:06;;;;;;;1999.90;999.90;;;8.70;99.90;;;;;;6616568;89;20633;-75
2023/01/10 13:01:11;;;;;;;1999.90;999.90;;;8.40;99.90;;;;;;6612710;89;20312;-75
2023/01/10 13:11:20;;;;;;;1999.90;999.90;;;8.20;99.90;;;;;;6618183;89;20275;-75
2023/01/10 13:21:20;;;;;;;1999.90;999.90;;;8.20;99.90;;;;;;6613131;89;20194;-76
2023/01/10 13:31:30;;;;;;;1999.90;999.90;;;8.00;99.90;;;;;;6615222;89;20720;-75
2023/01/10 13:52:32;;;;;;;1999.90;999.90;;;8.00;99.90;;;;;;6611331;89;20185;-76
2023/01/10 14:02:32;;;;;;;1999.90;999.90;;;7.90;99.90;;;;;;6607045;89;20313;-75
2023/01/10 14:12:44;;;;;;;1999.90;999.90;;;7.70;99.90;;;;;;6609382;89;20726;-76
2023/01/10 14:23:04;;;;;;;1999.90;999.90;;;7.70;99.90;;;;;;6609108;89;20263;-76
2023/01/10 14:33:20;;;;;;;1999.90;999.90;;;7.70;99.90;;;;;;6610430;89;20221;-76
2023/01/10 14:43:25;;;;;;;1999.90;999.90;;;7.70;99.90;;;;;;6611584;89;20334;-75
2023/01/10 14:53:28;;;;;;;1999.90;999.90;;;7.70;99.90;;;;;;6614501;89;21068;-76
2023/01/10 15:03:29;;;;;;;1999.90;999.90;;;7.70;99.90;;;;;;6613781;89;20310;-76
2023/01/10 15:13:33;;;;;;;1999.90;999.90;;;7.70;99.90;;;;;;6613728;89;22152;-75
2023/01/10 15:23:44;;;;;;;1999.90;999.90;;;7.60;99.90;;;;;;6613997;89;20215;-75
2023/01/10 15:33:55;;;;;;;1999.90;999.90;;;7.70;99.90;;;;;;6609974;88;20180;-74
2023/01/10 15:44:23;;;;;;;1999.90;999.90;;;7.60;99.90;;;;;;6613688;89;20225;-76
2023/01/10 15:54:23;;;;;;;1999.90;999.90;;;7.60;99.90;;;;;;6612593;89;20210;-76
2023/01/10 16:04:24;;;;;;;1999.90;999.90;;;7.50;99.90;;;;;;6611508;89;20227;-76
2023/01/10 16:14:25;;;;;;;1999.90;999.90;;;7.20;99.90;;;;;;6613679;89;20205;-75
2023/01/10 16:24:34;;;;;;;1999.90;999.90;;;6.70;99.90;;;;;;6613113;89;20196;-76
2023/01/10 16:34:34;;;;;;;1999.90;999.90;;;6.40;99.90;;;;;;6616327;89;20191;-75
2023/01/10 16:44:35;;;;;;;1999.90;999.90;;;6.30;99.90;;;;;;6613137;89;20230;-75
2023/01/10 16:54:37;;;;;;;1999.90;999.90;;;6.20;99.90;;;;;;6608511;89;20206;-76
2023/01/10 17:04:39;;;;;;;1999.90;999.90;;;6.10;99.90;;;;;;6608542;89;20345;-76
2023/01/10 17:14:39;;;;;;;1999.90;999.90;;;6.10;99.90;;;;;;6613137;89;20296;-75
2023/01/10 17:24:40;;;;;;;1999.90;999.90;;;6.10;99.90;;;;;;6609690;88;20634;-75
2023/01/10 17:34:40;;;;;;;1999.90;999.90;;;6.10;99.90;;;;;;6609340;89;20652;-75
2023/01/10 17:44:41;;;;;;;1999.90;999.90;;;6.00;99.90;;;;;;6612999;89;20749;-76
2023/01/10 17:54:41;;;;;;;1999.90;999.90;;;6.10;99.90;;;;;;6608585;89;20305;-76
2023/01/10 18:04:42;;;;;;;1999.90;999.90;;;6.00;99.90;;;;;;6619203;88;20201;-76
2023/01/10 18:14:44;;;;;;;1999.90;999.90;;;6.10;99.90;;;;;;6613837;89;20662;-75
2023/01/10 18:24:45;;;;;;;1999.90;999.90;;;6.00;99.90;;;;;;6617132;89;20198;-75
2023/01/10 18:34:46;;;;;;;1999.90;999.90;;;6.10;99.90;;;;;;6611755;89;20202;-74
2023/01/10 18:44:47;;;;;;;1999.90;999.90;;;6.10;99.90;;;;;;6665373;88;20261;-75
2023/01/10 18:54:47;;;;;;;1999.90;999.90;;;6.20;99.90;;;;;;6625102;88;20527;-76
2023/01/10 19:04:50;;;;;;;1999.90;999.90;;;6.20;99.90;;;;;;6611794;89;20648;-75
2023/01/10 19:14:50;;;;;;;1999.90;999.90;;;6.40;99.90;;;;;;6611235;89;21020;-75
2023/01/10 19:24:51;;;;;;;1999.90;999.90;;;6.50;99.90;;;;;;6610469;89;20351;-75
2023/01/10 19:34:51;;;;;;;1999.90;999.90;;;6.70;99.90;;;;;;6611062;88;20185;-74
2023/01/10 19:44:52;;;;;;;1999.90;999.90;;;6.90;99.90;;;;;;6618836;89;20251;-74
2023/01/10 19:54:52;;;;;;;1999.90;999.90;;;6.90;99.90;;;;;;6622149;89;20361;-76
2023/01/10 20:04:53;;;;;;;1999.90;999.90;;;7.00;99.90;;;;;;6610313;89;20207;-75
2023/01/10 20:14:53;;;;;;;1999.90;999.90;;;7.10;99.90;;;;;;6600742;89;20185;-76
2023/01/10 20:24:56;;;;;;;1999.90;999.90;;;7.20;99.90;;;;;;6624230;89;21058;-75
2023/01/10 20:34:57;;;;;;;1999.90;999.90;;;7.30;99.90;;;;;;6627207;89;20687;-75
2023/01/10 20:44:57;;;;;;;1999.90;999.90;;;7.40;99.90;;;;;;6614988;89;20270;-75
2023/01/10 20:54:58;;;;;;;1999.90;999.90;;;7.50;99.90;;;;;;6612204;89;20261;-77
2023/01/10 21:04:58;;;;;;;1999.90;999.90;;;7.50;99.90;;;;;;6621797;89;20730;-75
2023/01/10 21:14:59;;;;;;;1999.90;999.90;;;7.60;99.90;;;;;;6618359;88;20217;-75
2023/01/10 21:24:59;;;;;;;1999.90;999.90;;;7.70;99.90;;;;;;6623200;89;20269;-75
2023/01/10 21:35:00;;;;;;;1999.90;999.90;;;7.70;99.90;;;;;;6607207;89;20214;-75
2023/01/10 21:45:01;;;;;;;1999.90;999.90;;;7.80;99.90;;;;;;6610632;89;20898;-75
2023/01/10 21:55:02;;;;;;;1999.90;999.90;;;7.80;99.90;;;;;;6611109;89;20203;-75
2023/01/10 22:05:03;;;;;;;1999.90;999.90;;;7.70;99.90;;;;;;6617266;89;20548;-76
2023/01/10 22:15:03;;;;;;;1999.90;999.90;;;7.50;99.90;;;;;;6617855;88;20193;-76
2023/01/10 22:25:05;;;;;;;1999.90;999.90;;;7.20;99.90;;;;;;6616931;89;20700;-77
2023/01/10 22:35:05;;;;;;;1999.90;999.90;;;7.30;99.90;;;;;;6617016;89;20228;-77
2023/01/10 22:45:06;;;;;;;1999.90;999.90;;;7.00;99.90;;;;;;6619030;89;20247;-76
2023/01/10 22:55:07;;;;;;;1999.90;999.90;;;7.00;99.90;;;;;;6613477;89;20837;-77
2023/01/10 23:05:08;;;;;;;1999.90;999.90;;;7.10;99.90;;;;;;6616153;88;20272;-76
2023/01/10 23:15:09;;;;;;;1999.90;999.90;;;7.20;99.90;;;;;;6616473;88;20640;-77
2023/01/10 23:25:09;;;;;;;1999.90;999.90;;;7.20;99.90;;;;;;6617216;89;20190;-77
2023/01/10 23:35:10;;;;;;;1999.90;999.90;;;7.30;99.90;;;;;;6612642;89;20211;-77
2023/01/10 23:45:10;;;;;;;1999.90;999.90;;;7.20;99.90;;;;;;6614387;89;20212;-75
2023/01/10 23:55:11;;;;;;;1999.90;999.90;;;7.00;99.90;;;;;;6616064;89;20201;-75
